AAL2147 KMIA-KMCO
Flight info
| Callsign | AAL2147 |
|---|---|
| Flight time | 0h 38m |
| Altitude | 20000 |
| Route | FLMGO2 WAPOM MUNGI1 |
| Aircraft | B38M/M-SDE1FGHILORVWXY/HB1 |
Departure
| Time | 2026-04-26 00:16 |
|---|---|
| Airport | Miami International Airport (KMIA) |
Arrival
| Time | 2026-04-26 00:55 |
|---|---|
| Airport | Orlando International Airport (KMCO) |
| Time | Latitude | Longitude | Altitude | Speed | Heading |
|---|---|---|---|---|---|
| 2026-04-25 23:19 | 25.79699 | -80.28179 | 18 ft | 0 kts | 23° |
| 2026-04-25 23:54 | 25.79693 | -80.28182 | 17 ft | 4 kts | 23° |
| 2026-04-25 23:54 | 25.79673 | -80.28192 | 17 ft | 3 kts | 23° |
| 2026-04-25 23:54 | 25.79649 | -80.28198 | 17 ft | 4 kts | 345° |
| 2026-04-25 23:55 | 25.79637 | -80.28184 | 17 ft | 4 kts | 288° |
| 2026-04-25 23:55 | 25.79632 | -80.28164 | 17 ft | 0 kts | 288° |
| 2026-04-26 00:00 | 25.79638 | -80.28186 | 19 ft | 8 kts | 288° |
| 2026-04-26 00:01 | 25.79674 | -80.28282 | 17 ft | 18 kts | 280° |
| 2026-04-26 00:01 | 25.79670 | -80.28443 | 17 ft | 23 kts | 268° |
| 2026-04-26 00:01 | 25.79653 | -80.28599 | 17 ft | 16 kts | 261° |
| 2026-04-26 00:01 | 25.79641 | -80.28731 | 19 ft | 20 kts | 266° |
| 2026-04-26 00:02 | 25.79732 | -80.28814 | 18 ft | 21 kts | 4° |
| 2026-04-26 00:02 | 25.79880 | -80.28824 | 18 ft | 22 kts | 358° |
| 2026-04-26 00:02 | 25.80010 | -80.28856 | 20 ft | 16 kts | 302° |
| 2026-04-26 00:02 | 25.80010 | -80.28972 | 19 ft | 18 kts | 266° |
| 2026-04-26 00:03 | 25.80002 | -80.29144 | 19 ft | 27 kts | 268° |
| 2026-04-26 00:03 | 25.79996 | -80.29302 | 18 ft | 17 kts | 268° |
| 2026-04-26 00:03 | 25.79990 | -80.29447 | 17 ft | 20 kts | 268° |
| 2026-04-26 00:03 | 25.79984 | -80.29596 | 17 ft | 19 kts | 268° |
| 2026-04-26 00:04 | 25.79980 | -80.29683 | 17 ft | 0 kts | 266° |
| 2026-04-26 00:12 | 25.79980 | -80.29689 | 17 ft | 2 kts | 266° |
| 2026-04-26 00:12 | 25.79979 | -80.29718 | 17 ft | 5 kts | 272° |
| 2026-04-26 00:12 | 25.79991 | -80.29749 | 17 ft | 0 kts | 314° |
| 2026-04-26 00:14 | 25.80009 | -80.29762 | 18 ft | 8 kts | 338° |
| 2026-04-26 00:14 | 25.80089 | -80.29733 | 16 ft | 11 kts | 77° |
| 2026-04-26 00:14 | 25.80089 | -80.29709 | 16 ft | 0 kts | 88° |
| 2026-04-26 00:15 | 25.80090 | -80.29674 | 16 ft | 26 kts | 88° |
| 2026-04-26 00:15 | 25.80108 | -80.29212 | 21 ft | 92 kts | 88° |
| 2026-04-26 00:16 | 25.80147 | -80.28278 | 18 ft | 147 kts | 88° |
| 2026-04-26 00:16 | 25.80191 | -80.27020 | 301 ft | 166 kts | 88° |
| 2026-04-26 00:16 | 25.80293 | -80.25712 | 890 ft | 175 kts | 86° |
| 2026-04-26 00:16 | 25.80370 | -80.24368 | 1573 ft | 176 kts | 88° |
| 2026-04-26 00:17 | 25.80429 | -80.22949 | 2012 ft | 193 kts | 88° |
| 2026-04-26 00:17 | 25.80486 | -80.21380 | 2346 ft | 215 kts | 88° |
| 2026-04-26 00:17 | 25.80542 | -80.19639 | 2686 ft | 235 kts | 88° |
| 2026-04-26 00:17 | 25.80931 | -80.17829 | 3093 ft | 252 kts | 61° |
| 2026-04-26 00:18 | 25.82164 | -80.16445 | 3716 ft | 261 kts | 30° |
| 2026-04-26 00:18 | 25.83915 | -80.15896 | 4391 ft | 269 kts | 4° |
| 2026-04-26 00:18 | 25.85791 | -80.15853 | 5044 ft | 273 kts | 2° |
| 2026-04-26 00:18 | 25.87715 | -80.15790 | 5752 ft | 276 kts | 2° |
| 2026-04-26 00:19 | 25.89644 | -80.15854 | 6424 ft | 279 kts | 348° |
| 2026-04-26 00:19 | 25.91515 | -80.16476 | 7084 ft | 283 kts | 342° |
| 2026-04-26 00:19 | 25.93401 | -80.17122 | 7813 ft | 281 kts | 342° |
| 2026-04-26 00:19 | 25.95294 | -80.17784 | 8345 ft | 290 kts | 342° |
| 2026-04-26 00:20 | 25.97230 | -80.18458 | 8971 ft | 293 kts | 342° |
| 2026-04-26 00:20 | 25.99085 | -80.19375 | 9596 ft | 293 kts | 322° |
| 2026-04-26 00:20 | 26.00632 | -80.20854 | 10237 ft | 296 kts | 318° |
| 2026-04-26 00:20 | 26.02226 | -80.22407 | 10487 ft | 314 kts | 317° |
| 2026-04-26 00:21 | 26.03913 | -80.24064 | 10617 ft | 332 kts | 318° |
| 2026-04-26 00:21 | 26.05682 | -80.25813 | 10769 ft | 348 kts | 318° |
| 2026-04-26 00:21 | 26.07517 | -80.27632 | 10968 ft | 359 kts | 318° |
| 2026-04-26 00:21 | 26.09383 | -80.29484 | 11328 ft | 364 kts | 318° |
| 2026-04-26 00:22 | 26.11302 | -80.31390 | 11859 ft | 365 kts | 318° |
| 2026-04-26 00:22 | 26.13176 | -80.33253 | 12376 ft | 367 kts | 318° |
| 2026-04-26 00:22 | 26.15109 | -80.35176 | 12914 ft | 369 kts | 318° |
| 2026-04-26 00:22 | 26.17008 | -80.37065 | 13452 ft | 372 kts | 318° |
| 2026-04-26 00:23 | 26.18943 | -80.38991 | 14018 ft | 374 kts | 317° |
| 2026-04-26 00:23 | 26.20893 | -80.40933 | 14576 ft | 377 kts | 317° |
| 2026-04-26 00:23 | 26.22933 | -80.42787 | 15101 ft | 381 kts | 328° |
| 2026-04-26 00:23 | 26.25313 | -80.44118 | 15663 ft | 384 kts | 333° |
| 2026-04-26 00:24 | 26.27730 | -80.45427 | 16175 ft | 388 kts | 333° |
| 2026-04-26 00:24 | 26.30168 | -80.46734 | 16675 ft | 391 kts | 333° |
| 2026-04-26 00:24 | 26.32634 | -80.48049 | 17154 ft | 394 kts | 333° |
| 2026-04-26 00:24 | 26.35112 | -80.49368 | 17631 ft | 396 kts | 333° |
| 2026-04-26 00:25 | 26.37609 | -80.50697 | 18089 ft | 399 kts | 333° |
| 2026-04-26 00:25 | 26.40128 | -80.52037 | 18524 ft | 402 kts | 333° |
| 2026-04-26 00:25 | 26.42662 | -80.53386 | 18962 ft | 404 kts | 333° |
| 2026-04-26 00:25 | 26.45204 | -80.54740 | 19376 ft | 406 kts | 333° |
| 2026-04-26 00:26 | 26.47768 | -80.56102 | 19753 ft | 409 kts | 334° |
| 2026-04-26 00:26 | 26.50482 | -80.57108 | 19890 ft | 413 kts | 342° |
| 2026-04-26 00:26 | 26.53268 | -80.57991 | 19920 ft | 421 kts | 342° |
| 2026-04-26 00:26 | 26.56107 | -80.58895 | 19921 ft | 428 kts | 342° |
| 2026-04-26 00:27 | 26.58989 | -80.59811 | 19923 ft | 433 kts | 342° |
| 2026-04-26 00:27 | 26.61906 | -80.60738 | 19925 ft | 437 kts | 342° |
| 2026-04-26 00:27 | 26.64833 | -80.61668 | 19937 ft | 439 kts | 342° |
| 2026-04-26 00:27 | 26.67735 | -80.62591 | 19941 ft | 439 kts | 342° |
| 2026-04-26 00:28 | 26.70676 | -80.63527 | 19942 ft | 439 kts | 342° |
| 2026-04-26 00:28 | 26.73619 | -80.64464 | 19943 ft | 439 kts | 342° |
| 2026-04-26 00:28 | 26.76557 | -80.65399 | 19943 ft | 439 kts | 342° |
| 2026-04-26 00:28 | 26.79499 | -80.66337 | 19944 ft | 439 kts | 342° |
| 2026-04-26 00:29 | 26.82438 | -80.67274 | 19943 ft | 439 kts | 342° |
| 2026-04-26 00:29 | 26.85380 | -80.68213 | 19944 ft | 439 kts | 342° |
| 2026-04-26 00:29 | 26.88323 | -80.69152 | 19943 ft | 439 kts | 342° |
| 2026-04-26 00:29 | 26.91244 | -80.70134 | 19936 ft | 439 kts | 340° |
| 2026-04-26 00:30 | 26.94137 | -80.71244 | 19932 ft | 438 kts | 339° |
| 2026-04-26 00:30 | 26.96987 | -80.72325 | 19401 ft | 429 kts | 340° |
| 2026-04-26 00:30 | 26.99801 | -80.73386 | 19164 ft | 428 kts | 340° |
| 2026-04-26 00:30 | 27.02627 | -80.74450 | 18997 ft | 428 kts | 340° |
| 2026-04-26 00:31 | 27.05452 | -80.75513 | 18934 ft | 428 kts | 340° |
| 2026-04-26 00:31 | 27.08275 | -80.76577 | 18933 ft | 428 kts | 340° |
| 2026-04-26 00:31 | 27.11098 | -80.77640 | 18934 ft | 428 kts | 340° |
| 2026-04-26 00:31 | 27.13886 | -80.78690 | 18934 ft | 428 kts | 340° |
| 2026-04-26 00:32 | 27.16712 | -80.79756 | 18935 ft | 428 kts | 340° |
| 2026-04-26 00:32 | 27.19487 | -80.80804 | 18934 ft | 428 kts | 340° |
| 2026-04-26 00:32 | 27.25150 | -80.82942 | 18933 ft | 431 kts | 340° |
| 2026-04-26 00:33 | 27.28000 | -80.84019 | 18934 ft | 433 kts | 340° |
| 2026-04-26 00:33 | 27.30853 | -80.85097 | 18934 ft | 433 kts | 340° |
| 2026-04-26 00:33 | 27.33769 | -80.86006 | 18938 ft | 434 kts | 344° |
| 2026-04-26 00:33 | 27.36691 | -80.86850 | 18941 ft | 434 kts | 343° |
| 2026-04-26 00:34 | 27.39615 | -80.87713 | 18943 ft | 434 kts | 343° |
| 2026-04-26 00:34 | 27.42537 | -80.88584 | 18943 ft | 434 kts | 343° |
| 2026-04-26 00:34 | 27.45451 | -80.89455 | 18941 ft | 434 kts | 343° |
| 2026-04-26 00:34 | 27.48377 | -80.90331 | 18942 ft | 435 kts | 343° |
| 2026-04-26 00:35 | 27.51306 | -80.91209 | 18936 ft | 435 kts | 343° |
| 2026-04-26 00:35 | 27.54193 | -80.92074 | 18935 ft | 435 kts | 343° |
| 2026-04-26 00:35 | 27.56163 | -80.92665 | 18935 ft | 435 kts | 343° |
| 2026-04-26 00:35 | 27.60039 | -80.93829 | 18935 ft | 435 kts | 343° |
| 2026-04-26 00:36 | 27.62965 | -80.94707 | 18932 ft | 435 kts | 343° |
| 2026-04-26 00:36 | 27.65892 | -80.95586 | 18934 ft | 435 kts | 343° |
| 2026-04-26 00:36 | 27.67863 | -80.96179 | 18934 ft | 434 kts | 343° |
| 2026-04-26 00:36 | 27.70786 | -80.97058 | 18929 ft | 435 kts | 343° |
| 2026-04-26 00:37 | 27.74623 | -80.98212 | 18788 ft | 423 kts | 343° |
| 2026-04-26 00:37 | 27.76498 | -80.98777 | 18504 ft | 417 kts | 343° |
| 2026-04-26 00:37 | 27.79277 | -80.99614 | 18095 ft | 409 kts | 343° |
| 2026-04-26 00:37 | 27.82002 | -81.00436 | 17648 ft | 402 kts | 343° |
| 2026-04-26 00:38 | 27.84688 | -81.01245 | 17121 ft | 398 kts | 343° |
| 2026-04-26 00:38 | 27.87356 | -81.02050 | 16583 ft | 394 kts | 343° |
| 2026-04-26 00:38 | 27.89999 | -81.02848 | 16040 ft | 391 kts | 343° |
| 2026-04-26 00:38 | 27.92618 | -81.03640 | 15511 ft | 387 kts | 343° |
| 2026-04-26 00:39 | 27.95144 | -81.04656 | 14964 ft | 384 kts | 338° |
| 2026-04-26 00:39 | 27.97633 | -81.05718 | 14436 ft | 381 kts | 338° |
| 2026-04-26 00:39 | 28.00104 | -81.06755 | 13922 ft | 378 kts | 338° |
| 2026-04-26 00:39 | 28.02566 | -81.07781 | 13412 ft | 375 kts | 338° |
| 2026-04-26 00:40 | 28.05007 | -81.08794 | 12859 ft | 373 kts | 338° |
| 2026-04-26 00:40 | 28.07433 | -81.09800 | 12365 ft | 370 kts | 338° |
| 2026-04-26 00:40 | 28.09816 | -81.10845 | 12001 ft | 363 kts | 337° |
| 2026-04-26 00:40 | 28.12143 | -81.11872 | 11750 ft | 353 kts | 337° |
| 2026-04-26 00:41 | 28.14404 | -81.12867 | 11528 ft | 344 kts | 337° |
| 2026-04-26 00:41 | 28.16601 | -81.13834 | 11328 ft | 334 kts | 337° |
| 2026-04-26 00:41 | 28.18741 | -81.14776 | 11149 ft | 325 kts | 337° |
| 2026-04-26 00:41 | 28.20788 | -81.15676 | 10987 ft | 315 kts | 337° |
| 2026-04-26 00:42 | 28.22804 | -81.16564 | 10839 ft | 306 kts | 337° |
| 2026-04-26 00:42 | 28.24766 | -81.17428 | 10600 ft | 300 kts | 337° |
| 2026-04-26 00:42 | 28.26679 | -81.18257 | 10324 ft | 289 kts | 340° |
| 2026-04-26 00:42 | 28.28656 | -81.18554 | 9748 ft | 289 kts | 358° |
| 2026-04-26 00:43 | 28.30676 | -81.18584 | 9307 ft | 291 kts | 356° |
| 2026-04-26 00:43 | 28.32701 | -81.18625 | 8946 ft | 290 kts | 356° |
| 2026-04-26 00:43 | 28.34720 | -81.18665 | 8588 ft | 290 kts | 356° |
| 2026-04-26 00:43 | 28.36734 | -81.18704 | 8255 ft | 288 kts | 357° |
| 2026-04-26 00:44 | 28.38735 | -81.18740 | 7932 ft | 287 kts | 357° |
| 2026-04-26 00:44 | 28.40729 | -81.18759 | 7591 ft | 286 kts | 358° |
| 2026-04-26 00:44 | 28.42708 | -81.18775 | 7348 ft | 281 kts | 358° |
| 2026-04-26 00:44 | 28.44632 | -81.18791 | 7239 ft | 272 kts | 358° |
| 2026-04-26 00:45 | 28.46493 | -81.18807 | 7135 ft | 262 kts | 358° |
| 2026-04-26 00:45 | 28.48285 | -81.18822 | 7034 ft | 252 kts | 357° |
| 2026-04-26 00:45 | 28.50004 | -81.18837 | 6936 ft | 242 kts | 357° |
| 2026-04-26 00:45 | 28.51655 | -81.18852 | 6708 ft | 238 kts | 357° |
| 2026-04-26 00:46 | 28.53308 | -81.18866 | 6410 ft | 238 kts | 358° |
| 2026-04-26 00:46 | 28.54959 | -81.18887 | 6097 ft | 237 kts | 357° |
| 2026-04-26 00:46 | 28.56601 | -81.18920 | 5816 ft | 236 kts | 357° |
| 2026-04-26 00:46 | 28.58243 | -81.18949 | 5519 ft | 235 kts | 357° |
| 2026-04-26 00:47 | 28.59877 | -81.18979 | 5216 ft | 235 kts | 358° |
| 2026-04-26 00:47 | 28.61514 | -81.19009 | 4931 ft | 234 kts | 358° |
| 2026-04-26 00:47 | 28.63147 | -81.19040 | 4616 ft | 235 kts | 358° |
| 2026-04-26 00:47 | 28.64780 | -81.19070 | 4332 ft | 234 kts | 359° |
| 2026-04-26 00:48 | 28.66405 | -81.19099 | 4074 ft | 232 kts | 359° |
| 2026-04-26 00:48 | 28.68021 | -81.19128 | 3968 ft | 233 kts | 359° |
| 2026-04-26 00:48 | 28.69590 | -81.19495 | 3890 ft | 230 kts | 332° |
| 2026-04-26 00:48 | 28.70774 | -81.20687 | 3543 ft | 229 kts | 299° |
| 2026-04-26 00:49 | 28.71212 | -81.22385 | 3206 ft | 225 kts | 266° |
| 2026-04-26 00:49 | 28.70771 | -81.24036 | 2974 ft | 215 kts | 231° |
| 2026-04-26 00:49 | 28.69644 | -81.25099 | 2953 ft | 212 kts | 205° |
| 2026-04-26 00:49 | 28.68321 | -81.25839 | 2999 ft | 217 kts | 203° |
| 2026-04-26 00:50 | 28.66947 | -81.26581 | 2992 ft | 218 kts | 203° |
| 2026-04-26 00:50 | 28.65580 | -81.27318 | 2984 ft | 218 kts | 203° |
| 2026-04-26 00:50 | 28.64206 | -81.28036 | 2981 ft | 217 kts | 198° |
| 2026-04-26 00:50 | 28.62747 | -81.28416 | 2975 ft | 215 kts | 183° |
| 2026-04-26 00:51 | 28.61263 | -81.28456 | 3024 ft | 209 kts | 178° |
| 2026-04-26 00:51 | 28.59883 | -81.28428 | 3024 ft | 191 kts | 178° |
| 2026-04-26 00:51 | 28.58579 | -81.28408 | 2799 ft | 184 kts | 178° |
| 2026-04-26 00:51 | 28.57313 | -81.28392 | 2579 ft | 180 kts | 178° |
| 2026-04-26 00:52 | 28.56090 | -81.28380 | 2371 ft | 168 kts | 178° |
| 2026-04-26 00:52 | 28.54949 | -81.28366 | 2153 ft | 161 kts | 178° |
| 2026-04-26 00:52 | 28.53839 | -81.28355 | 1979 ft | 157 kts | 177° |
| 2026-04-26 00:52 | 28.52744 | -81.28344 | 1769 ft | 157 kts | 177° |
| 2026-04-26 00:53 | 28.51654 | -81.28331 | 1538 ft | 157 kts | 178° |
| 2026-04-26 00:53 | 28.50565 | -81.28321 | 1331 ft | 157 kts | 178° |
| 2026-04-26 00:53 | 28.49472 | -81.28310 | 1119 ft | 157 kts | 178° |
| 2026-04-26 00:53 | 28.48380 | -81.28303 | 908 ft | 157 kts | 178° |
| 2026-04-26 00:54 | 28.47312 | -81.28298 | 688 ft | 155 kts | 177° |
| 2026-04-26 00:54 | 28.46234 | -81.28285 | 470 ft | 156 kts | 178° |
| 2026-04-26 00:54 | 28.45146 | -81.28273 | 303 ft | 156 kts | 178° |
| 2026-04-26 00:54 | 28.44067 | -81.28259 | 107 ft | 152 kts | 178° |
| 2026-04-26 00:55 | 28.43132 | -81.28246 | 98 ft | 108 kts | 179° |
| 2026-04-26 00:55 | 28.42637 | -81.28251 | 100 ft | 36 kts | 196° |
| 2026-04-26 00:55 | 28.42506 | -81.28407 | 98 ft | 16 kts | 253° |
| 2026-04-26 00:55 | 28.42469 | -81.28530 | 98 ft | 17 kts | 250° |
| 2026-04-26 00:56 | 28.42429 | -81.28653 | 101 ft | 17 kts | 249° |
| 2026-04-26 00:56 | 28.42391 | -81.28779 | 105 ft | 15 kts | 251° |
| 2026-04-26 00:56 | 28.42352 | -81.28906 | 106 ft | 21 kts | 250° |
| 2026-04-26 00:56 | 28.42296 | -81.29107 | 99 ft | 31 kts | 259° |
| 2026-04-26 00:57 | 28.42285 | -81.29345 | 97 ft | 29 kts | 270° |
| 2026-04-26 00:57 | 28.42283 | -81.29583 | 97 ft | 31 kts | 269° |
| 2026-04-26 00:57 | 28.42302 | -81.29780 | 98 ft | 21 kts | 316° |
| 2026-04-26 00:57 | 28.42363 | -81.29876 | 97 ft | 18 kts | 268° |
| 2026-04-26 00:58 | 28.42361 | -81.30081 | 97 ft | 34 kts | 269° |
| 2026-04-26 00:58 | 28.42355 | -81.30367 | 97 ft | 37 kts | 267° |
| 2026-04-26 00:58 | 28.42339 | -81.30646 | 99 ft | 35 kts | 265° |
| 2026-04-26 00:58 | 28.42320 | -81.30908 | 97 ft | 34 kts | 265° |
| 2026-04-26 00:59 | 28.42338 | -81.31163 | 97 ft | 32 kts | 278° |
| 2026-04-26 00:59 | 28.42351 | -81.31418 | 98 ft | 33 kts | 269° |
| 2026-04-26 00:59 | 28.42348 | -81.31673 | 101 ft | 30 kts | 269° |
| 2026-04-26 00:59 | 28.42412 | -81.31833 | 103 ft | 23 kts | 2° |
| 2026-04-26 01:00 | 28.42582 | -81.31834 | 104 ft | 27 kts | 359° |
| 2026-04-26 01:00 | 28.42787 | -81.31835 | 102 ft | 31 kts | 359° |
| 2026-04-26 01:00 | 28.42968 | -81.31795 | 102 ft | 17 kts | 90° |
| 2026-04-26 01:00 | 28.42910 | -81.31676 | 97 ft | 19 kts | 123° |
| 2026-04-26 01:01 | 28.42872 | -81.31622 | 95 ft | 0 kts | 128° |
| 2026-04-26 01:01 | 28.42872 | -81.31621 | 97 ft | 0 kts | 128° |